首页
METAR-TAF:

METAR-TAF

机场 :

珀斯機場

珀斯, 澳大利亚

纬度: 31-56S, 经度: 115-57E, 海拔: 20米

当前天气观测

该预报发布于15分钟前的04:30 UTC
风速10节,风向西转西南
温度 24°C
湿度 65%
气压 1013 hPa
能见度10公里或以上
散云层高于2400英尺
阴天层高于3500英尺

METAR: YPPH 210430Z 25010KT 9999 SCT024 OVC035 24/17 Q1013 NOSIG

时间: 12:45 (04:45 UTC)

预报

该预报发布于5小时和43分钟前的23:02 UTC
预报有效从21日的 00点(UTC)到 22日的 06点(UTC)
风速6节,风向西转西北
能见度10公里或以上
多云层高于2200英尺
从 21日的 0100点(UTC)
风速12节,风向西转西南
能见度10公里或以上
散云层高于2500英尺
从 21日的 1400点(UTC)
风速6节,风向西南
能见度10公里或以上
多云层高于2000英尺
从 22日的 0100点(UTC)
风速10节,风向西转西南
能见度10公里或以上
1500米以下无云,无积雨云

TAF: YPPH 202302Z 2100/2206 30006KT 9999 BKN022 FM210100 25012KT 9999 SCT025 FM211400 22006KT 9999 BKN020 FM220100 25010KT CAVOK

超过4000个机场的气象观测和天气预报(METAR&TAF报告)。

可查询的气象台以黄色和红色小点在地图上表示。

将鼠标移到小点上方,可查看气象台名称。

然后点击查看天气观测和预报。

如需切换地图:点击带黑十字的绿色按钮放大地图;点击带横线的绿色按钮缩小地图;或者点击绿色箭头查看邻近地区的地图。


METAR-TAF: